sensor_id;sensor_type;location;lat;lon;timestamp;P1;durP1;ratioP1;P2;durP2;ratioP2
75737;SDS011;64356;45.638;13.764;2023-04-23T00:01:16;4.30;;;3.45;;
75737;SDS011;64356;45.638;13.764;2023-04-23T00:03:43;4.40;;;4.00;;
75737;SDS011;64356;45.638;13.764;2023-04-23T00:06:09;5.60;;;4.03;;
75737;SDS011;64356;45.638;13.764;2023-04-23T00:08:39;6.65;;;4.13;;
75737;SDS011;64356;45.638;13.764;2023-04-23T00:11:05;5.63;;;3.97;;
75737;SDS011;64356;45.638;13.764;2023-04-23T00:13:32;5.75;;;4.13;;
75737;SDS011;64356;45.638;13.764;2023-04-23T00:15:58;7.85;;;4.15;;
75737;SDS011;64356;45.638;13.764;2023-04-23T00:18:24;5.63;;;4.00;;
75737;SDS011;64356;45.638;13.764;2023-04-23T00:20:50;5.38;;;4.10;;
75737;SDS011;64356;45.638;13.764;2023-04-23T00:23:16;7.07;;;4.00;;
75737;SDS011;64356;45.638;13.764;2023-04-23T00:25:42;9.98;;;4.28;;
75737;SDS011;64356;45.638;13.764;2023-04-23T00:28:07;6.55;;;3.92;;
75737;SDS011;64356;45.638;13.764;2023-04-23T00:30:33;6.35;;;4.03;;
75737;SDS011;64356;45.638;13.764;2023-04-23T00:32:59;7.65;;;3.80;;
75737;SDS011;64356;45.638;13.764;2023-04-23T00:35:25;5.88;;;4.22;;
75737;SDS011;64356;45.638;13.764;2023-04-23T00:37:51;5.00;;;4.13;;
75737;SDS011;64356;45.638;13.764;2023-04-23T00:40:16;8.05;;;3.60;;
75737;SDS011;64356;45.638;13.764;2023-04-23T00:42:42;4.72;;;3.55;;
75737;SDS011;64356;45.638;13.764;2023-04-23T00:45:09;5.78;;;4.18;;
75737;SDS011;64356;45.638;13.764;2023-04-23T00:47:36;5.80;;;4.00;;
75737;SDS011;64356;45.638;13.764;2023-04-23T00:50:02;6.60;;;3.85;;
75737;SDS011;64356;45.638;13.764;2023-04-23T00:52:28;5.13;;;3.72;;
75737;SDS011;64356;45.638;13.764;2023-04-23T00:54:54;6.57;;;3.83;;
75737;SDS011;64356;45.638;13.764;2023-04-23T00:57:23;5.00;;;3.88;;
75737;SDS011;64356;45.638;13.764;2023-04-23T00:59:50;4.32;;;3.92;;
75737;SDS011;64356;45.638;13.764;2023-04-23T01:02:16;7.15;;;4.03;;
75737;SDS011;64356;45.638;13.764;2023-04-23T01:04:42;5.68;;;3.63;;
75737;SDS011;64356;45.638;13.764;2023-04-23T01:07:10;4.80;;;3.50;;
75737;SDS011;64356;45.638;13.764;2023-04-23T01:09:36;4.60;;;3.53;;
75737;SDS011;64356;45.638;13.764;2023-04-23T01:12:04;5.78;;;3.67;;
75737;SDS011;64356;45.638;13.764;2023-04-23T01:14:30;4.50;;;3.72;;
75737;SDS011;64356;45.638;13.764;2023-04-23T01:16:56;4.68;;;3.35;;
75737;SDS011;64356;45.638;13.764;2023-04-23T01:19:22;5.25;;;3.80;;
75737;SDS011;64356;45.638;13.764;2023-04-23T01:21:48;5.43;;;4.20;;
75737;SDS011;64356;45.638;13.764;2023-04-23T01:24:15;8.10;;;3.90;;
75737;SDS011;64356;45.638;13.764;2023-04-23T01:26:41;4.85;;;3.78;;
75737;SDS011;64356;45.638;13.764;2023-04-23T01:29:07;5.85;;;3.63;;
75737;SDS011;64356;45.638;13.764;2023-04-23T01:31:34;4.53;;;3.55;;
75737;SDS011;64356;45.638;13.764;2023-04-23T01:34:00;4.40;;;3.65;;
75737;SDS011;64356;45.638;13.764;2023-04-23T01:36:26;6.13;;;3.92;;
75737;SDS011;64356;45.638;13.764;2023-04-23T01:38:52;4.20;;;3.45;;
75737;SDS011;64356;45.638;13.764;2023-04-23T01:41:18;3.83;;;3.53;;
75737;SDS011;64356;45.638;13.764;2023-04-23T01:43:46;5.75;;;3.63;;
75737;SDS011;64356;45.638;13.764;2023-04-23T01:46:12;4.13;;;3.47;;
75737;SDS011;64356;45.638;13.764;2023-04-23T01:48:38;4.45;;;3.80;;
75737;SDS011;64356;45.638;13.764;2023-04-23T01:51:04;6.45;;;3.53;;
75737;SDS011;64356;45.638;13.764;2023-04-23T01:53:30;4.50;;;3.67;;
75737;SDS011;64356;45.638;13.764;2023-04-23T01:55:55;7.05;;;3.58;;
75737;SDS011;64356;45.638;13.764;2023-04-23T01:58:22;5.75;;;3.80;;
75737;SDS011;64356;45.638;13.764;2023-04-23T02:00:48;7.97;;;3.95;;
75737;SDS011;64356;45.638;13.764;2023-04-23T02:03:14;5.57;;;3.35;;
75737;SDS011;64356;45.638;13.764;2023-04-23T02:05:41;5.35;;;4.03;;
75737;SDS011;64356;45.638;13.764;2023-04-23T02:08:06;7.30;;;3.67;;
75737;SDS011;64356;45.638;13.764;2023-04-23T02:10:33;6.45;;;3.65;;
75737;SDS011;64356;45.638;13.764;2023-04-23T02:12:58;5.78;;;3.42;;
75737;SDS011;64356;45.638;13.764;2023-04-23T02:15:25;4.82;;;3.80;;
75737;SDS011;64356;45.638;13.764;2023-04-23T02:17:51;4.30;;;3.90;;
75737;SDS011;64356;45.638;13.764;2023-04-23T02:20:17;3.67;;;3.38;;
75737;SDS011;64356;45.638;13.764;2023-04-23T02:22:43;4.18;;;3.67;;
75737;SDS011;64356;45.638;13.764;2023-04-23T02:25:10;5.22;;;3.47;;
75737;SDS011;64356;45.638;13.764;2023-04-23T02:27:36;5.03;;;3.88;;
75737;SDS011;64356;45.638;13.764;2023-04-23T02:30:01;6.78;;;3.88;;
75737;SDS011;64356;45.638;13.764;2023-04-23T02:32:28;3.90;;;3.60;;
75737;SDS011;64356;45.638;13.764;2023-04-23T02:34:53;4.43;;;3.65;;
75737;SDS011;64356;45.638;13.764;2023-04-23T02:37:20;4.55;;;3.50;;
75737;SDS011;64356;45.638;13.764;2023-04-23T02:39:45;3.53;;;3.22;;
75737;SDS011;64356;45.638;13.764;2023-04-23T02:42:12;4.60;;;3.38;;
75737;SDS011;64356;45.638;13.764;2023-04-23T02:44:37;3.88;;;3.58;;
75737;SDS011;64356;45.638;13.764;2023-04-23T02:47:03;4.10;;;3.70;;
75737;SDS011;64356;45.638;13.764;2023-04-23T02:49:29;4.50;;;3.55;;
75737;SDS011;64356;45.638;13.764;2023-04-23T02:51:54;5.13;;;4.03;;
75737;SDS011;64356;45.638;13.764;2023-04-23T02:54:20;3.42;;;3.13;;
75737;SDS011;64356;45.638;13.764;2023-04-23T02:56:46;7.50;;;3.88;;
75737;SDS011;64356;45.638;13.764;2023-04-23T02:59:11;3.80;;;3.47;;
75737;SDS011;64356;45.638;13.764;2023-04-23T03:01:37;5.00;;;3.90;;
75737;SDS011;64356;45.638;13.764;2023-04-23T03:04:03;5.00;;;3.88;;
75737;SDS011;64356;45.638;13.764;2023-04-23T03:06:29;4.47;;;3.65;;
75737;SDS011;64356;45.638;13.764;2023-04-23T03:08:56;4.68;;;3.67;;
75737;SDS011;64356;45.638;13.764;2023-04-23T03:11:21;4.35;;;3.42;;
75737;SDS011;64356;45.638;13.764;2023-04-23T03:13:47;4.20;;;3.80;;
75737;SDS011;64356;45.638;13.764;2023-04-23T03:16:13;4.07;;;3.67;;
75737;SDS011;64356;45.638;13.764;2023-04-23T03:18:39;4.20;;;3.80;;
75737;SDS011;64356;45.638;13.764;2023-04-23T03:21:05;4.07;;;3.67;;
75737;SDS011;64356;45.638;13.764;2023-04-23T03:23:30;5.57;;;3.65;;
75737;SDS011;64356;45.638;13.764;2023-04-23T03:25:56;4.07;;;3.30;;
75737;SDS011;64356;45.638;13.764;2023-04-23T03:28:22;4.60;;;3.53;;
75737;SDS011;64356;45.638;13.764;2023-04-23T03:30:48;7.63;;;4.00;;
75737;SDS011;64356;45.638;13.764;2023-04-23T03:33:14;6.97;;;3.55;;
75737;SDS011;64356;45.638;13.764;2023-04-23T03:35:40;3.80;;;3.50;;
75737;SDS011;64356;45.638;13.764;2023-04-23T03:38:05;4.65;;;3.35;;
75737;SDS011;64356;45.638;13.764;2023-04-23T03:40:31;3.90;;;3.50;;
75737;SDS011;64356;45.638;13.764;2023-04-23T03:42:57;4.07;;;3.72;;
75737;SDS011;64356;45.638;13.764;2023-04-23T03:45:23;6.72;;;3.38;;
75737;SDS011;64356;45.638;13.764;2023-04-23T03:47:49;5.40;;;3.72;;
75737;SDS011;64356;45.638;13.764;2023-04-23T03:50:15;4.78;;;3.78;;
75737;SDS011;64356;45.638;13.764;2023-04-23T03:52:41;7.72;;;3.60;;
75737;SDS011;64356;45.638;13.764;2023-04-23T03:55:08;4.00;;;3.60;;
75737;SDS011;64356;45.638;13.764;2023-04-23T03:57:34;5.47;;;3.95;;
75737;SDS011;64356;45.638;13.764;2023-04-23T04:00:01;4.22;;;3.58;;
75737;SDS011;64356;45.638;13.764;2023-04-23T04:02:28;4.68;;;3.60;;
75737;SDS011;64356;45.638;13.764;2023-04-23T04:04:53;3.75;;;3.40;;
75737;SDS011;64356;45.638;13.764;2023-04-23T04:07:20;4.70;;;3.33;;
75737;SDS011;64356;45.638;13.764;2023-04-23T04:09:46;6.28;;;3.15;;
75737;SDS011;64356;45.638;13.764;2023-04-23T04:12:13;3.83;;;2.92;;
75737;SDS011;64356;45.638;13.764;2023-04-23T04:14:40;4.07;;;3.67;;
75737;SDS011;64356;45.638;13.764;2023-04-23T04:17:06;3.97;;;3.38;;
75737;SDS011;64356;45.638;13.764;2023-04-23T04:19:32;5.53;;;3.75;;
75737;SDS011;64356;45.638;13.764;2023-04-23T04:21:58;4.03;;;3.50;;
75737;SDS011;64356;45.638;13.764;2023-04-23T04:24:26;3.72;;;3.30;;
75737;SDS011;64356;45.638;13.764;2023-04-23T04:26:53;4.72;;;3.10;;
75737;SDS011;64356;45.638;13.764;2023-04-23T04:29:18;4.03;;;3.55;;
75737;SDS011;64356;45.638;13.764;2023-04-23T04:31:46;5.07;;;3.20;;
75737;SDS011;64356;45.638;13.764;2023-04-23T04:34:12;4.57;;;3.25;;
75737;SDS011;64356;45.638;13.764;2023-04-23T04:36:39;3.85;;;3.45;;
75737;SDS011;64356;45.638;13.764;2023-04-23T04:39:06;4.32;;;3.60;;
75737;SDS011;64356;45.638;13.764;2023-04-23T04:41:33;5.20;;;3.30;;
75737;SDS011;64356;45.638;13.764;2023-04-23T04:44:00;4.18;;;3.42;;
75737;SDS011;64356;45.638;13.764;2023-04-23T04:46:25;3.63;;;3.33;;
75737;SDS011;64356;45.638;13.764;2023-04-23T04:48:53;3.72;;;3.20;;
75737;SDS011;64356;45.638;13.764;2023-04-23T04:51:19;4.55;;;3.63;;
75737;SDS011;64356;45.638;13.764;2023-04-23T04:53:45;3.90;;;3.42;;
75737;SDS011;64356;45.638;13.764;2023-04-23T04:56:11;4.55;;;3.60;;
75737;SDS011;64356;45.638;13.764;2023-04-23T04:58:36;3.83;;;3.20;;
75737;SDS011;64356;45.638;13.764;2023-04-23T05:01:02;3.78;;;3.35;;
75737;SDS011;64356;45.638;13.764;2023-04-23T05:03:29;4.35;;;3.75;;
75737;SDS011;64356;45.638;13.764;2023-04-23T05:05:55;3.97;;;3.58;;
75737;SDS011;64356;45.638;13.764;2023-04-23T05:08:23;4.38;;;3.17;;
75737;SDS011;64356;45.638;13.764;2023-04-23T05:10:49;5.28;;;3.63;;
75737;SDS011;64356;45.638;13.764;2023-04-23T05:13:15;3.63;;;3.33;;
75737;SDS011;64356;45.638;13.764;2023-04-23T05:15:41;6.82;;;3.60;;
75737;SDS011;64356;45.638;13.764;2023-04-23T05:18:08;3.25;;;2.90;;
75737;SDS011;64356;45.638;13.764;2023-04-23T05:20:34;3.30;;;3.00;;
75737;SDS011;64356;45.638;13.764;2023-04-23T05:23:01;3.83;;;3.22;;
75737;SDS011;64356;45.638;13.764;2023-04-23T05:25:28;3.78;;;3.38;;
75737;SDS011;64356;45.638;13.764;2023-04-23T05:27:54;5.63;;;3.50;;
75737;SDS011;64356;45.638;13.764;2023-04-23T05:30:20;3.75;;;3.45;;
75737;SDS011;64356;45.638;13.764;2023-04-23T05:32:46;5.20;;;3.40;;
75737;SDS011;64356;45.638;13.764;2023-04-23T05:35:12;7.05;;;3.40;;
75737;SDS011;64356;45.638;13.764;2023-04-23T05:37:37;4.47;;;3.30;;
75737;SDS011;64356;45.638;13.764;2023-04-23T05:40:03;3.25;;;2.95;;
75737;SDS011;64356;45.638;13.764;2023-04-23T05:42:31;7.28;;;3.03;;
75737;SDS011;64356;45.638;13.764;2023-04-23T05:44:58;5.90;;;3.35;;
75737;SDS011;64356;45.638;13.764;2023-04-23T05:47:24;4.95;;;3.08;;
75737;SDS011;64356;45.638;13.764;2023-04-23T05:49:50;3.53;;;2.95;;
75737;SDS011;64356;45.638;13.764;2023-04-23T05:52:16;3.35;;;2.97;;
75737;SDS011;64356;45.638;13.764;2023-04-23T05:54:42;3.42;;;2.97;;
75737;SDS011;64356;45.638;13.764;2023-04-23T05:57:08;4.00;;;3.28;;
75737;SDS011;64356;45.638;13.764;2023-04-23T05:59:35;3.28;;;2.97;;
75737;SDS011;64356;45.638;13.764;2023-04-23T06:02:00;3.88;;;3.33;;
75737;SDS011;64356;45.638;13.764;2023-04-23T06:04:26;3.97;;;3.30;;
75737;SDS011;64356;45.638;13.764;2023-04-23T06:06:52;3.85;;;3.45;;
75737;SDS011;64356;45.638;13.764;2023-04-23T06:09:18;3.40;;;3.05;;
75737;SDS011;64356;45.638;13.764;2023-04-23T06:11:43;3.33;;;3.03;;
75737;SDS011;64356;45.638;13.764;2023-04-23T06:14:09;3.22;;;2.92;;
75737;SDS011;64356;45.638;13.764;2023-04-23T06:16:35;3.28;;;2.83;;
75737;SDS011;64356;45.638;13.764;2023-04-23T06:19:00;3.42;;;2.92;;
75737;SDS011;64356;45.638;13.764;2023-04-23T06:21:27;3.70;;;3.08;;
75737;SDS011;64356;45.638;13.764;2023-04-23T06:23:53;3.50;;;2.80;;
75737;SDS011;64356;45.638;13.764;2023-04-23T06:26:18;3.50;;;3.20;;
75737;SDS011;64356;45.638;13.764;2023-04-23T06:28:45;2.80;;;2.60;;
75737;SDS011;64356;45.638;13.764;2023-04-23T06:31:11;2.65;;;2.45;;
75737;SDS011;64356;45.638;13.764;2023-04-23T06:33:37;5.65;;;3.55;;
75737;SDS011;64356;45.638;13.764;2023-04-23T06:36:03;4.90;;;3.35;;
75737;SDS011;64356;45.638;13.764;2023-04-23T06:38:29;3.65;;;3.10;;
75737;SDS011;64356;45.638;13.764;2023-04-23T06:40:55;3.38;;;3.08;;
75737;SDS011;64356;45.638;13.764;2023-04-23T06:43:21;8.32;;;3.10;;
75737;SDS011;64356;45.638;13.764;2023-04-23T06:45:47;3.38;;;3.08;;
75737;SDS011;64356;45.638;13.764;2023-04-23T06:48:13;4.07;;;3.10;;
75737;SDS011;64356;45.638;13.764;2023-04-23T06:50:40;4.00;;;3.15;;
75737;SDS011;64356;45.638;13.764;2023-04-23T06:53:05;3.42;;;3.13;;
75737;SDS011;64356;45.638;13.764;2023-04-23T06:55:31;3.30;;;3.00;;
75737;SDS011;64356;45.638;13.764;2023-04-23T06:57:57;3.33;;;3.03;;
75737;SDS011;64356;45.638;13.764;2023-04-23T07:00:23;3.40;;;3.10;;
75737;SDS011;64356;45.638;13.764;2023-04-23T07:02:49;3.70;;;3.28;;
75737;SDS011;64356;45.638;13.764;2023-04-23T07:05:18;3.55;;;3.00;;
75737;SDS011;64356;45.638;13.764;2023-04-23T07:07:43;3.13;;;2.72;;
75737;SDS011;64356;45.638;13.764;2023-04-23T07:10:10;3.95;;;3.08;;
75737;SDS011;64356;45.638;13.764;2023-04-23T07:12:36;3.63;;;3.00;;
75737;SDS011;64356;45.638;13.764;2023-04-23T07:15:03;3.40;;;2.92;;
75737;SDS011;64356;45.638;13.764;2023-04-23T07:17:30;3.28;;;2.88;;
75737;SDS011;64356;45.638;13.764;2023-04-23T07:19:56;4.80;;;3.05;;
75737;SDS011;64356;45.638;13.764;2023-04-23T07:22:22;3.60;;;3.30;;
75737;SDS011;64356;45.638;13.764;2023-04-23T07:24:49;2.88;;;2.63;;
75737;SDS011;64356;45.638;13.764;2023-04-23T07:27:15;3.42;;;3.13;;
75737;SDS011;64356;45.638;13.764;2023-04-23T07:29:41;3.75;;;3.25;;
75737;SDS011;64356;45.638;13.764;2023-04-23T07:32:07;5.75;;;2.95;;
75737;SDS011;64356;45.638;13.764;2023-04-23T07:34:33;3.55;;;3.08;;
75737;SDS011;64356;45.638;13.764;2023-04-23T07:37:00;3.30;;;3.00;;
75737;SDS011;64356;45.638;13.764;2023-04-23T07:39:26;3.15;;;2.85;;
75737;SDS011;64356;45.638;13.764;2023-04-23T07:41:52;4.03;;;3.10;;
75737;SDS011;64356;45.638;13.764;2023-04-23T07:44:18;3.80;;;3.38;;
75737;SDS011;64356;45.638;13.764;2023-04-23T07:46:43;3.47;;;3.17;;
75737;SDS011;64356;45.638;13.764;2023-04-23T07:49:09;3.25;;;2.95;;
75737;SDS011;64356;45.638;13.764;2023-04-23T07:51:35;3.47;;;3.17;;
75737;SDS011;64356;45.638;13.764;2023-04-23T07:54:00;3.70;;;3.40;;
75737;SDS011;64356;45.638;13.764;2023-04-23T07:56:26;3.85;;;3.47;;
75737;SDS011;64356;45.638;13.764;2023-04-23T07:58:52;3.38;;;3.08;;
75737;SDS011;64356;45.638;13.764;2023-04-23T08:01:20;4.85;;;3.22;;
75737;SDS011;64356;45.638;13.764;2023-04-23T08:03:46;4.05;;;3.33;;
75737;SDS011;64356;45.638;13.764;2023-04-23T08:06:11;3.63;;;3.33;;
75737;SDS011;64356;45.638;13.764;2023-04-23T08:08:37;3.08;;;2.78;;
75737;SDS011;64356;45.638;13.764;2023-04-23T08:11:06;3.10;;;2.78;;
75737;SDS011;64356;45.638;13.764;2023-04-23T08:13:32;3.60;;;3.25;;
75737;SDS011;64356;45.638;13.764;2023-04-23T08:15:57;3.38;;;3.00;;
75737;SDS011;64356;45.638;13.764;2023-04-23T08:18:23;3.58;;;3.28;;
75737;SDS011;64356;45.638;13.764;2023-04-23T08:20:49;5.72;;;3.38;;
75737;SDS011;64356;45.638;13.764;2023-04-23T08:23:16;3.38;;;3.08;;
75737;SDS011;64356;45.638;13.764;2023-04-23T08:25:41;3.55;;;3.25;;
75737;SDS011;64356;45.638;13.764;2023-04-23T08:28:07;5.00;;;3.03;;
75737;SDS011;64356;45.638;13.764;2023-04-23T08:30:33;4.28;;;3.33;;
75737;SDS011;64356;45.638;13.764;2023-04-23T08:32:59;3.05;;;2.78;;
75737;SDS011;64356;45.638;13.764;2023-04-23T08:35:24;3.80;;;2.75;;
75737;SDS011;64356;45.638;13.764;2023-04-23T08:37:50;3.70;;;3.22;;
75737;SDS011;64356;45.638;13.764;2023-04-23T08:40:16;4.13;;;3.72;;
75737;SDS011;64356;45.638;13.764;2023-04-23T08:47:39;4.00;;;3.30;;
75737;SDS011;64356;45.638;13.764;2023-04-23T08:50:12;3.70;;;3.40;;
75737;SDS011;64356;45.638;13.764;2023-04-23T08:52:49;3.92;;;3.45;;
75737;SDS011;64356;45.638;13.764;2023-04-23T08:55:16;3.30;;;3.08;;
75737;SDS011;64356;45.638;13.764;2023-04-23T08:57:43;4.82;;;3.20;;
75737;SDS011;64356;45.638;13.764;2023-04-23T09:00:10;3.55;;;3.20;;
75737;SDS011;64356;45.638;13.764;2023-04-23T09:02:41;3.28;;;2.97;;
75737;SDS011;64356;45.638;13.764;2023-04-23T09:05:07;3.40;;;3.10;;
75737;SDS011;64356;45.638;13.764;2023-04-23T09:07:34;3.75;;;3.38;;
75737;SDS011;64356;45.638;13.764;2023-04-23T09:10:04;3.35;;;3.05;;
75737;SDS011;64356;45.638;13.764;2023-04-23T09:12:30;3.55;;;2.85;;
75737;SDS011;64356;45.638;13.764;2023-04-23T09:14:59;4.05;;;3.42;;
75737;SDS011;64356;45.638;13.764;2023-04-23T09:17:27;6.28;;;3.30;;
75737;SDS011;64356;45.638;13.764;2023-04-23T09:19:54;3.58;;;3.25;;
75737;SDS011;64356;45.638;13.764;2023-04-23T09:25:05;4.32;;;3.10;;
75737;SDS011;64356;45.638;13.764;2023-04-23T09:27:32;3.30;;;3.00;;
75737;SDS011;64356;45.638;13.764;2023-04-23T09:30:08;3.40;;;3.10;;
75737;SDS011;64356;45.638;13.764;2023-04-23T09:32:35;4.35;;;2.92;;
75737;SDS011;64356;45.638;13.764;2023-04-23T09:35:05;3.67;;;3.28;;
75737;SDS011;64356;45.638;13.764;2023-04-23T09:37:36;3.17;;;2.88;;
75737;SDS011;64356;45.638;13.764;2023-04-23T09:40:12;3.58;;;2.88;;
75737;SDS011;64356;45.638;13.764;2023-04-23T09:42:39;3.40;;;3.10;;
75737;SDS011;64356;45.638;13.764;2023-04-23T09:45:11;3.50;;;3.20;;
75737;SDS011;64356;45.638;13.764;2023-04-23T09:47:38;3.10;;;2.80;;
75737;SDS011;64356;45.638;13.764;2023-04-23T09:50:30;2.88;;;2.60;;
75737;SDS011;64356;45.638;13.764;2023-04-23T09:52:58;3.28;;;2.97;;
75737;SDS011;64356;45.638;13.764;2023-04-23T09:55:36;3.05;;;2.75;;
75737;SDS011;64356;45.638;13.764;2023-04-23T09:58:03;4.60;;;3.60;;
75737;SDS011;64356;45.638;13.764;2023-04-23T10:00:39;3.88;;;3.40;;
75737;SDS011;64356;45.638;13.764;2023-04-23T10:03:06;3.13;;;2.83;;
75737;SDS011;64356;45.638;13.764;2023-04-23T10:05:36;3.88;;;3.30;;
75737;SDS011;64356;45.638;13.764;2023-04-23T10:08:04;3.05;;;2.85;;
75737;SDS011;64356;45.638;13.764;2023-04-23T10:10:31;3.53;;;3.22;;
75737;SDS011;64356;45.638;13.764;2023-04-23T10:12:58;3.22;;;2.97;;
75737;SDS011;64356;45.638;13.764;2023-04-23T10:15:25;3.47;;;3.05;;
75737;SDS011;64356;45.638;13.764;2023-04-23T10:17:51;3.67;;;2.80;;
75737;SDS011;64356;45.638;13.764;2023-04-23T10:20:18;3.30;;;3.00;;
75737;SDS011;64356;45.638;13.764;2023-04-23T10:22:47;3.22;;;2.92;;
75737;SDS011;64356;45.638;13.764;2023-04-23T10:25:14;3.65;;;2.72;;
75737;SDS011;64356;45.638;13.764;2023-04-23T10:27:41;3.35;;;3.00;;
75737;SDS011;64356;45.638;13.764;2023-04-23T10:30:08;2.83;;;2.60;;
75737;SDS011;64356;45.638;13.764;2023-04-23T10:32:35;3.42;;;3.13;;
75737;SDS011;64356;45.638;13.764;2023-04-23T10:35:03;3.90;;;3.15;;
75737;SDS011;64356;45.638;13.764;2023-04-23T10:37:29;3.17;;;2.88;;
75737;SDS011;64356;45.638;13.764;2023-04-23T10:39:57;5.47;;;3.40;;
75737;SDS011;64356;45.638;13.764;2023-04-23T10:42:38;3.60;;;3.00;;
75737;SDS011;64356;45.638;13.764;2023-04-23T10:45:14;3.30;;;3.00;;
75737;SDS011;64356;45.638;13.764;2023-04-23T10:47:41;2.47;;;2.28;;
75737;SDS011;64356;45.638;13.764;2023-04-23T10:53:03;3.47;;;3.17;;
75737;SDS011;64356;45.638;13.764;2023-04-23T10:55:29;3.58;;;3.28;;
75737;SDS011;64356;45.638;13.764;2023-04-23T10:58:05;3.30;;;2.92;;
75737;SDS011;64356;45.638;13.764;2023-04-23T11:06:04;3.30;;;3.00;;
75737;SDS011;64356;45.638;13.764;2023-04-23T11:08:31;3.05;;;2.80;;
75737;SDS011;64356;45.638;13.764;2023-04-23T11:11:00;3.53;;;2.88;;
75737;SDS011;64356;45.638;13.764;2023-04-23T11:13:30;2.90;;;2.70;;
75737;SDS011;64356;45.638;13.764;2023-04-23T11:16:11;3.40;;;2.95;;
75737;SDS011;64356;45.638;13.764;2023-04-23T11:21:54;2.88;;;2.67;;
75737;SDS011;64356;45.638;13.764;2023-04-23T11:24:21;2.95;;;2.75;;
75737;SDS011;64356;45.638;13.764;2023-04-23T11:26:50;3.33;;;2.80;;
75737;SDS011;64356;45.638;13.764;2023-04-23T11:29:18;2.90;;;2.70;;
75737;SDS011;64356;45.638;13.764;2023-04-23T11:31:47;3.00;;;2.70;;
75737;SDS011;64356;45.638;13.764;2023-04-23T11:34:13;2.80;;;2.60;;
75737;SDS011;64356;45.638;13.764;2023-04-23T11:36:39;3.05;;;2.75;;
75737;SDS011;64356;45.638;13.764;2023-04-23T11:39:05;3.10;;;2.80;;
75737;SDS011;64356;45.638;13.764;2023-04-23T11:41:32;3.97;;;2.83;;
75737;SDS011;64356;45.638;13.764;2023-04-23T11:43:59;3.58;;;3.05;;
75737;SDS011;64356;45.638;13.764;2023-04-23T11:46:24;3.30;;;3.00;;
75737;SDS011;64356;45.638;13.764;2023-04-23T11:48:50;3.22;;;2.92;;
75737;SDS011;64356;45.638;13.764;2023-04-23T11:51:16;2.88;;;2.67;;
75737;SDS011;64356;45.638;13.764;2023-04-23T11:53:45;3.75;;;3.08;;
75737;SDS011;64356;45.638;13.764;2023-04-23T11:56:11;2.80;;;2.60;;
75737;SDS011;64356;45.638;13.764;2023-04-23T11:58:39;3.28;;;2.97;;
75737;SDS011;64356;45.638;13.764;2023-04-23T12:01:05;2.92;;;2.70;;
75737;SDS011;64356;45.638;13.764;2023-04-23T12:03:32;2.50;;;2.30;;
75737;SDS011;64356;45.638;13.764;2023-04-23T12:05:58;2.85;;;2.65;;
75737;SDS011;64356;45.638;13.764;2023-04-23T12:08:24;2.80;;;2.60;;
75737;SDS011;64356;45.638;13.764;2023-04-23T12:10:59;2.60;;;2.38;;
75737;SDS011;64356;45.638;13.764;2023-04-23T12:13:29;3.28;;;2.97;;
75737;SDS011;64356;45.638;13.764;2023-04-23T12:15:58;2.80;;;2.60;;
75737;SDS011;64356;45.638;13.764;2023-04-23T12:18:32;3.38;;;2.67;;
75737;SDS011;64356;45.638;13.764;2023-04-23T12:21:04;2.90;;;2.70;;
75737;SDS011;64356;45.638;13.764;2023-04-23T12:23:34;3.08;;;2.78;;
75737;SDS011;64356;45.638;13.764;2023-04-23T12:26:01;3.50;;;2.47;;
75737;SDS011;64356;45.638;13.764;2023-04-23T12:28:28;3.00;;;2.70;;
75737;SDS011;64356;45.638;13.764;2023-04-23T12:30:57;3.40;;;3.10;;
75737;SDS011;64356;45.638;13.764;2023-04-23T12:33:27;2.80;;;2.60;;
75737;SDS011;64356;45.638;13.764;2023-04-23T12:35:54;2.92;;;2.70;;
75737;SDS011;64356;45.638;13.764;2023-04-23T12:38:25;3.20;;;2.90;;
75737;SDS011;64356;45.638;13.764;2023-04-23T12:40:58;3.10;;;2.80;;
75737;SDS011;64356;45.638;13.764;2023-04-23T12:43:24;2.85;;;2.58;;
75737;SDS011;64356;45.638;13.764;2023-04-23T12:45:51;3.28;;;2.97;;
75737;SDS011;64356;45.638;13.764;2023-04-23T12:48:18;3.17;;;2.88;;
75737;SDS011;64356;45.638;13.764;2023-04-23T12:50:44;2.60;;;2.40;;
75737;SDS011;64356;45.638;13.764;2023-04-23T12:53:10;4.00;;;3.47;;
75737;SDS011;64356;45.638;13.764;2023-04-23T12:55:36;2.83;;;2.63;;
75737;SDS011;64356;45.638;13.764;2023-04-23T12:58:08;3.00;;;2.80;;
75737;SDS011;64356;45.638;13.764;2023-04-23T13:00:34;3.22;;;2.92;;
75737;SDS011;64356;45.638;13.764;2023-04-23T13:03:00;2.95;;;2.75;;
75737;SDS011;64356;45.638;13.764;2023-04-23T13:05:26;3.35;;;3.05;;
75737;SDS011;64356;45.638;13.764;2023-04-23T13:07:52;2.92;;;2.72;;
75737;SDS011;64356;45.638;13.764;2023-04-23T13:10:18;2.95;;;2.60;;
75737;SDS011;64356;45.638;13.764;2023-04-23T13:12:43;3.30;;;2.72;;
75737;SDS011;64356;45.638;13.764;2023-04-23T13:15:09;3.03;;;2.72;;
75737;SDS011;64356;45.638;13.764;2023-04-23T13:17:37;6.38;;;2.78;;
75737;SDS011;64356;45.638;13.764;2023-04-23T13:20:03;2.75;;;2.55;;
75737;SDS011;64356;45.638;13.764;2023-04-23T13:22:29;2.72;;;2.53;;
75737;SDS011;64356;45.638;13.764;2023-04-23T13:24:56;3.20;;;2.90;;
75737;SDS011;64356;45.638;13.764;2023-04-23T13:27:25;3.10;;;2.90;;
75737;SDS011;64356;45.638;13.764;2023-04-23T13:29:52;4.03;;;3.20;;
75737;SDS011;64356;45.638;13.764;2023-04-23T13:32:18;2.78;;;2.58;;
75737;SDS011;64356;45.638;13.764;2023-04-23T13:34:44;2.75;;;2.53;;
75737;SDS011;64356;45.638;13.764;2023-04-23T13:37:09;3.35;;;3.05;;
75737;SDS011;64356;45.638;13.764;2023-04-23T13:39:36;3.40;;;3.10;;
75737;SDS011;64356;45.638;13.764;2023-04-23T13:42:02;3.40;;;3.10;;
75737;SDS011;64356;45.638;13.764;2023-04-23T13:44:31;3.95;;;2.70;;
75737;SDS011;64356;45.638;13.764;2023-04-23T13:46:57;3.42;;;3.03;;
75737;SDS011;64356;45.638;13.764;2023-04-23T13:49:23;2.67;;;2.47;;
75737;SDS011;64356;45.638;13.764;2023-04-23T13:51:50;3.10;;;2.80;;
75737;SDS011;64356;45.638;13.764;2023-04-23T13:54:18;3.50;;;3.05;;
75737;SDS011;64356;45.638;13.764;2023-04-23T13:56:44;3.72;;;2.78;;
75737;SDS011;64356;45.638;13.764;2023-04-23T13:59:10;3.03;;;2.65;;
75737;SDS011;64356;45.638;13.764;2023-04-23T14:01:37;3.83;;;3.17;;
75737;SDS011;64356;45.638;13.764;2023-04-23T14:04:03;2.90;;;2.70;;
75737;SDS011;64356;45.638;13.764;2023-04-23T14:06:28;3.95;;;2.55;;
75737;SDS011;64356;45.638;13.764;2023-04-23T14:08:54;2.85;;;2.65;;
75737;SDS011;64356;45.638;13.764;2023-04-23T14:11:20;2.97;;;2.70;;
75737;SDS011;64356;45.638;13.764;2023-04-23T14:13:46;3.88;;;3.38;;
75737;SDS011;64356;45.638;13.764;2023-04-23T14:16:12;3.33;;;3.05;;
75737;SDS011;64356;45.638;13.764;2023-04-23T14:18:38;2.95;;;2.70;;
75737;SDS011;64356;45.638;13.764;2023-04-23T14:21:04;3.67;;;3.20;;
75737;SDS011;64356;45.638;13.764;2023-04-23T14:26:19;3.28;;;2.97;;
75737;SDS011;64356;45.638;13.764;2023-04-23T14:28:57;3.13;;;2.88;;
75737;SDS011;64356;45.638;13.764;2023-04-23T14:31:34;3.17;;;2.88;;
75737;SDS011;64356;45.638;13.764;2023-04-23T14:34:02;2.90;;;2.70;;
75737;SDS011;64356;45.638;13.764;2023-04-23T14:36:29;3.10;;;2.80;;
75737;SDS011;64356;45.638;13.764;2023-04-23T14:38:54;3.20;;;2.88;;
75737;SDS011;64356;45.638;13.764;2023-04-23T14:41:22;3.20;;;2.85;;
75737;SDS011;64356;45.638;13.764;2023-04-23T14:43:48;3.95;;;3.38;;
75737;SDS011;64356;45.638;13.764;2023-04-23T14:46:14;3.50;;;3.17;;
75737;SDS011;64356;45.638;13.764;2023-04-23T14:48:39;3.00;;;2.70;;
75737;SDS011;64356;45.638;13.764;2023-04-23T14:51:05;3.88;;;3.33;;
75737;SDS011;64356;45.638;13.764;2023-04-23T14:53:31;4.18;;;3.22;;